Time;durP1;ratioP1;P1;durP2;ratioP2;P2;SDS_P1;SDS_P2;PMS_P1;PMS_P2;Temp;Humidity;BMP_temperature;BMP_pressure;BME280_temperature;BME280_humidity;BME280_pressure;Samples;Min_cycle;Max_cycle;Signal;HPM_P1;HPM_P2
2023/04/14 05:26:48;;;;;;;7.33;5.70;;;;;;;;;;6235200;22;885887;-57
2023/04/14 05:29:14;;;;;;;10.93;7.03;;;;;;;;;;6147333;22;3151845;-57
2023/04/14 05:31:41;;;;;;;6.80;4.97;;;;;;;;;;6284402;22;20010;-57
2023/04/14 05:34:08;;;;;;;6.93;5.80;;;;;;;;;;6284406;22;20000;-57
2023/04/14 05:36:34;;;;;;;28.13;5.00;;;;;;;;;;6284208;22;20426;-57
2023/04/14 05:39:01;;;;;;;6.67;5.43;;;;;;;;;;6251372;22;20014;-57
2023/04/14 05:41:28;;;;;;;6.13;4.53;;;;;;;;;;6251107;22;20057;-57
2023/04/14 05:43:54;;;;;;;5.27;4.17;;;;;;;;;;6277964;22;20438;-58
2023/04/14 05:46:21;;;;;;;7.07;5.53;;;;;;;;;;6278043;22;20007;-57
2023/04/14 05:48:48;;;;;;;5.97;4.33;;;;;;;;;;6282645;22;19999;-57
2023/04/14 05:51:15;;;;;;;12.53;6.77;;;;;;;;;;6284251;22;19999;-57
2023/04/14 05:53:42;;;;;;;7.03;5.57;;;;;;;;;;6283910;22;20078;-57
2023/04/14 05:56:10;;;;;;;5.27;4.77;;;;;;;;;;6284211;22;20016;-57
2023/04/14 05:58:37;;;;;;;5.60;3.50;;;;;;;;;;6283938;22;20007;-57
2023/04/14 06:01:05;;;;;;;5.50;3.80;;;;;;;;;;6279140;22;20011;-57
2023/04/14 06:03:31;;;;;;;8.10;5.10;;;;;;;;;;6278291;22;20378;-57
2023/04/14 06:05:58;;;;;;;4.23;3.50;;;;;;;;;;6278064;22;20018;-57
2023/04/14 06:08:25;;;;;;;5.70;4.20;;;;;;;;;;6273174;22;20000;-57
2023/04/14 06:10:51;;;;;;;6.80;5.40;;;;;;;;;;6275664;22;20004;-57
2023/04/14 06:13:21;;;;;;;5.70;5.10;;;;;;;;;;6277164;22;20310;-57
2023/04/14 06:15:50;;;;;;;4.57;3.77;;;;;;;;;;6277151;22;20438;-57
2023/04/14 06:18:17;;;;;;;4.27;3.73;;;;;;;;;;6276532;22;20014;-57
2023/04/14 06:20:45;;;;;;;4.93;3.80;;;;;;;;;;6276911;22;20043;-58
2023/04/14 06:23:11;;;;;;;6.70;4.90;;;;;;;;;;6271961;22;20000;-57
2023/04/14 06:25:38;;;;;;;4.33;3.80;;;;;;;;;;6270561;22;20101;-57
2023/04/14 06:28:05;;;;;;;3.17;2.87;;;;;;;;;;6270775;22;20015;-57
2023/04/14 06:30:31;;;;;;;5.77;4.97;;;;;;;;;;6270747;22;20000;-57
2023/04/14 06:33:02;;;;;;;4.17;3.67;;;;;;;;;;6275008;22;19999;-57
2023/04/14 06:35:33;;;;;;;6.13;4.80;;;;;;;;;;6276504;22;20004;-57
2023/04/14 06:38:01;;;;;;;10.23;5.30;;;;;;;;;;6276585;22;20435;-57
2023/04/14 06:40:27;;;;;;;7.83;5.23;;;;;;;;;;6277076;22;20004;-57
2023/04/14 06:42:54;;;;;;;5.17;4.67;;;;;;;;;;6250362;22;20026;-57
2023/04/14 06:45:21;;;;;;;5.00;4.37;;;;;;;;;;6271862;22;20014;-57
2023/04/14 06:47:47;;;;;;;5.77;5.13;;;;;;;;;;6243590;22;20003;-57
2023/04/14 06:50:14;;;;;;;5.67;4.43;;;;;;;;;;6270566;22;20327;-57
2023/04/14 06:52:41;;;;;;;9.30;5.10;;;;;;;;;;6270399;22;20007;-57
2023/04/14 06:55:08;;;;;;;6.27;4.77;;;;;;;;;;6274298;22;20426;-57
2023/04/14 06:57:34;;;;;;;7.80;5.00;;;;;;;;;;6276800;22;20444;-58
2023/04/14 07:00:03;;;;;;;6.37;5.27;;;;;;;;;;6276490;22;20011;-57
2023/04/14 07:02:29;;;;;;;5.40;4.17;;;;;;;;;;6276580;22;20023;-57
2023/04/14 07:04:56;;;;;;;7.57;5.13;;;;;;;;;;6249576;22;20039;-57
2023/04/14 07:07:23;;;;;;;13.33;5.33;;;;;;;;;;6272147;22;20011;-57
2023/04/14 07:09:50;;;;;;;6.20;4.50;;;;;;;;;;6270164;22;20011;-57
2023/04/14 07:12:17;;;;;;;6.43;5.07;;;;;;;;;;6270065;22;20061;-57
2023/04/14 07:14:50;;;;;;;6.60;4.77;;;;;;;;;;6270333;22;20474;-58
2023/04/14 07:17:17;;;;;;;6.53;5.47;;;;;;;;;;6274044;22;20008;-57
2023/04/14 07:19:45;;;;;;;7.33;6.00;;;;;;;;;;6275902;22;20015;-57
2023/04/14 07:22:11;;;;;;;5.20;4.50;;;;;;;;;;6224799;22;20015;-57
2023/04/14 07:24:38;;;;;;;13.80;5.17;;;;;;;;;;6276439;22;20003;-57
2023/04/14 07:27:13;;;;;;;16.10;5.10;;;;;;;;;;6275862;22;20494;-57
2023/04/14 07:29:41;;;;;;;8.67;5.60;;;;;;;;;;6244551;22;20023;-57
2023/04/14 07:32:08;;;;;;;5.77;4.63;;;;;;;;;;6270861;22;20448;-57
2023/04/14 07:34:34;;;;;;;7.97;6.03;;;;;;;;;;6270344;22;20000;-57
2023/04/14 07:37:01;;;;;;;5.27;4.77;;;;;;;;;;6270039;22;20007;-57
2023/04/14 07:39:28;;;;;;;5.77;5.17;;;;;;;;;;6273559;22;20503;-57
2023/04/14 07:41:57;;;;;;;5.93;5.23;;;;;;;;;;6275893;22;20323;-57
2023/04/14 07:44:24;;;;;;;5.17;4.60;;;;;;;;;;6276546;22;20082;-57
2023/04/14 07:46:50;;;;;;;3.37;3.00;;;;;;;;;;6276163;22;20008;-57
2023/04/14 07:49:17;;;;;;;7.77;5.33;;;;;;;;;;6276164;22;20031;-57
2023/04/14 07:51:44;;;;;;;6.13;4.97;;;;;;;;;;6272105;22;20007;-57
2023/04/14 07:54:10;;;;;;;12.10;6.33;;;;;;;;;;6269956;22;20010;-57
2023/04/14 07:56:37;;;;;;;17.30;5.73;;;;;;;;;;6269861;22;20018;-57
2023/04/14 07:59:04;;;;;;;6.80;5.23;;;;;;;;;;6269408;22;20000;-57
2023/04/14 08:01:30;;;;;;;8.37;5.70;;;;;;;;;;6273209;22;19999;-57
2023/04/14 08:03:57;;;;;;;8.60;6.23;;;;;;;;;;6275993;22;20003;-57
2023/04/14 08:06:25;;;;;;;7.27;5.37;;;;;;;;;;6276045;22;20011;-57
2023/04/14 08:08:52;;;;;;;6.07;5.20;;;;;;;;;;6275827;22;20011;-57
2023/04/14 08:11:19;;;;;;;5.67;4.93;;;;;;;;;;6275990;22;20359;-57
2023/04/14 08:13:48;;;;;;;7.40;6.00;;;;;;;;;;6272498;22;20007;-57
2023/04/14 08:16:15;;;;;;;6.03;4.70;;;;;;;;;;6269068;22;20068;-57
2023/04/14 08:18:42;;;;;;;8.87;6.23;;;;;;;;;;6269871;22;20027;-57
2023/04/14 08:21:09;;;;;;;5.10;4.27;;;;;;;;;;6269731;22;20006;-57
2023/04/14 08:23:35;;;;;;;7.50;5.33;;;;;;;;;;6272492;22;20008;-58
2023/04/14 08:26:03;;;;;;;8.27;5.33;;;;;;;;;;6275876;22;19999;-57
2023/04/14 08:28:29;;;;;;;6.47;5.20;;;;;;;;;;6275733;22;20065;-57
2023/04/14 08:30:56;;;;;;;6.53;5.33;;;;;;;;;;6275613;22;20058;-57
2023/04/14 08:33:23;;;;;;;5.97;5.37;;;;;;;;;;6275574;22;20004;-57
2023/04/14 08:35:49;;;;;;;9.70;6.73;;;;;;;;;;6272721;22;20011;-57
2023/04/14 08:38:16;;;;;;;7.07;4.93;;;;;;;;;;6269631;22;20079;-57
2023/04/14 08:40:43;;;;;;;5.07;4.40;;;;;;;;;;6269505;22;20783;-57
2023/04/14 08:43:10;;;;;;;5.37;4.87;;;;;;;;;;6269644;22;20029;-57
2023/04/14 08:45:37;;;;;;;10.37;7.27;;;;;;;;;;6271735;22;20000;-57
2023/04/14 08:48:04;;;;;;;5.53;4.67;;;;;;;;;;6275728;22;20002;-57
2023/04/14 08:50:44;;;;;;;5.13;4.50;;;;;;;;;;6275346;22;20004;-57
2023/04/14 08:53:13;;;;;;;5.70;4.93;;;;;;;;;;6275547;22;20008;-57
2023/04/14 08:55:40;;;;;;;9.60;3.57;;;;;;;;;;6275605;22;19999;-57
2023/04/14 08:58:09;;;;;;;8.73;5.60;;;;;;;;;;6272438;22;19999;-57
2023/04/14 09:00:37;;;;;;;6.30;4.37;;;;;;;;;;6269461;22;20004;-57
2023/04/14 09:03:04;;;;;;;5.47;4.67;;;;;;;;;;6268903;22;20374;-57
2023/04/14 09:05:31;;;;;;;8.13;5.67;;;;;;;;;;6269343;22;20076;-57
2023/04/14 09:07:58;;;;;;;7.70;4.40;;;;;;;;;;6271797;22;20027;-57
2023/04/14 09:10:25;;;;;;;5.53;4.97;;;;;;;;;;6275710;22;20004;-57
2023/04/14 09:12:53;;;;;;;8.40;5.40;;;;;;;;;;6275604;22;20003;-57
2023/04/14 09:15:20;;;;;;;10.07;5.97;;;;;;;;;;6275756;22;20000;-57
2023/04/14 09:17:47;;;;;;;6.93;5.53;;;;;;;;;;6275644;22;20089;-57
2023/04/14 09:20:14;;;;;;;6.27;5.23;;;;;;;;;;6272302;22;20311;-57
2023/04/14 09:22:40;;;;;;;3.53;3.20;;;;;;;;;;6269395;22;20007;-57
2023/04/14 09:25:08;;;;;;;7.97;5.47;;;;;;;;;;6269292;22;20003;-57
2023/04/14 09:27:34;;;;;;;6.97;5.13;;;;;;;;;;6269401;22;20008;-58
2023/04/14 09:30:02;;;;;;;8.57;5.50;;;;;;;;;;6271512;22;20086;-57
2023/04/14 09:32:29;;;;;;;5.53;4.97;;;;;;;;;;6275675;22;20010;-57
2023/04/14 09:34:56;;;;;;;4.50;3.90;;;;;;;;;;6275561;22;20037;-57
2023/04/14 09:37:23;;;;;;;7.10;5.07;;;;;;;;;;6275186;22;20012;-57
2023/04/14 09:39:56;;;;;;;5.27;4.57;;;;;;;;;;6275695;22;20074;-57
2023/04/14 09:42:37;;;;;;;6.70;5.20;;;;;;;;;;6273105;22;20419;-57
2023/04/14 09:45:04;;;;;;;4.77;4.27;;;;;;;;;;6271766;22;20491;-57
2023/04/14 09:47:31;;;;;;;4.53;4.03;;;;;;;;;;6271414;22;20004;-57
2023/04/14 09:49:59;;;;;;;5.40;4.77;;;;;;;;;;6271094;22;20018;-57
2023/04/14 09:52:43;;;;;;;4.27;3.87;;;;;;;;;;6273597;22;20007;-57
2023/04/14 09:55:13;;;;;;;6.73;5.43;;;;;;;;;;6277466;22;20007;-57
2023/04/14 09:57:43;;;;;;;7.07;5.00;;;;;;;;;;6277179;22;20015;-57
2023/04/14 10:00:18;;;;;;;5.63;5.03;;;;;;;;;;6276796;22;20323;-57
2023/04/14 10:02:45;;;;;;;;;;;;;;;;;;6277630;22;20019;-57
2023/04/14 10:05:11;;;;;;;6.77;4.27;;;;;;;;;;6273178;22;19900;-58
2023/04/14 10:07:41;;;;;;;4.37;3.57;;;;;;;;;;6271111;22;20830;-57
2023/04/14 10:10:12;;;;;;;4.90;4.17;;;;;;;;;;6270693;22;19999;-57
2023/04/14 10:12:41;;;;;;;5.97;5.17;;;;;;;;;;6270463;22;20012;-57
2023/04/14 10:15:09;;;;;;;6.90;4.83;;;;;;;;;;6247214;22;20014;-57
2023/04/14 10:17:36;;;;;;;5.53;4.93;;;;;;;;;;6276735;22;20014;-57
2023/04/14 10:20:05;;;;;;;4.07;3.60;;;;;;;;;;6276886;22;20003;-57
2023/04/14 10:22:32;;;;;;;6.97;5.90;;;;;;;;;;6277118;22;20008;-57
2023/04/14 10:24:59;;;;;;;7.23;3.10;;;;;;;;;;6276964;22;20011;-57
2023/04/14 10:27:27;;;;;;;6.87;3.67;;;;;;;;;;6272865;22;20003;-57
2023/04/14 10:29:54;;;;;;;4.87;4.37;;;;;;;;;;6270745;22;20060;-57
2023/04/14 10:32:21;;;;;;;5.93;4.83;;;;;;;;;;6271149;22;20004;-57
2023/04/14 10:34:57;;;;;;;8.37;5.40;;;;;;;;;;6270696;22;20000;-56
2023/04/14 10:37:24;;;;;;;5.93;4.63;;;;;;;;;;6274643;22;20016;-57
2023/04/14 10:39:55;;;;;;;4.97;3.83;;;;;;;;;;6276655;22;20039;-57
2023/04/14 10:42:21;;;;;;;5.23;4.30;;;;;;;;;;6276254;22;20517;-57
2023/04/14 10:45:09;;;;;;;6.90;4.47;;;;;;;;;;6276747;22;20061;-57
2023/04/14 10:47:40;;;;;;;7.77;5.43;;;;;;;;;;6276881;22;20007;-56
2023/04/14 10:50:13;;;;;;;5.17;4.40;;;;;;;;;;6271467;22;20228;-57
2023/04/14 10:52:52;;;;;;;4.80;4.20;;;;;;;;;;6270306;22;20003;-57
2023/04/14 10:55:28;;;;;;;9.03;4.90;;;;;;;;;;6243628;22;20228;-56
2023/04/14 10:58:05;;;;;;;5.00;4.13;;;;;;;;;;6270811;22;20011;-57
2023/04/14 11:00:32;;;;;;;7.60;5.73;;;;;;;;;;6275863;22;20419;-56
2023/04/14 11:03:02;;;;;;;7.57;6.07;;;;;;;;;;6276684;22;20217;-56
2023/04/14 11:05:32;;;;;;;6.83;4.00;;;;;;;;;;6276779;22;20089;-56
2023/04/14 11:08:00;;;;;;;5.47;3.87;;;;;;;;;;6276270;22;20000;-56
2023/04/14 11:10:31;;;;;;;3.70;3.30;;;;;;;;;;6249121;22;20304;-56
2023/04/14 11:13:08;;;;;;;5.50;4.53;;;;;;;;;;6270209;22;20016;-56
2023/04/14 11:15:44;;;;;;;4.97;4.37;;;;;;;;;;6270733;22;20568;-56
2023/04/14 11:18:14;;;;;;;5.77;4.53;;;;;;;;;;6270574;22;20016;-56
2023/04/14 11:20:41;;;;;;;6.33;5.13;;;;;;;;;;6270935;22;20438;-56
2023/04/14 11:23:09;;;;;;;6.20;4.90;;;;;;;;;;6276416;22;20221;-56
2023/04/14 11:25:35;;;;;;;5.23;4.73;;;;;;;;;;6275777;22;20004;-56
2023/04/14 11:28:02;;;;;;;6.03;5.43;;;;;;;;;;6276401;22;20338;-56
2023/04/14 11:30:29;;;;;;;4.40;3.97;;;;;;;;;;6276557;22;20315;-56
2023/04/14 11:32:57;;;;;;;4.80;4.20;;;;;;;;;;6248906;22;20233;-57
2023/04/14 11:35:25;;;;;;;6.23;4.97;;;;;;;;;;6270367;22;20015;-56
2023/04/14 11:38:00;;;;;;;5.40;3.63;;;;;;;;;;6270166;22;20314;-57
2023/04/14 11:40:27;;;;;;;6.13;4.53;;;;;;;;;;6269957;22;20582;-56
2023/04/14 11:42:55;;;;;;;7.07;4.30;;;;;;;;;;6270482;22;20000;-56
2023/04/14 11:45:23;;;;;;;5.20;4.30;;;;;;;;;;6276340;22;20740;-56
2023/04/14 11:47:49;;;;;;;9.07;4.70;;;;;;;;;;6275938;22;20221;-56
2023/04/14 11:50:16;;;;;;;6.00;4.70;;;;;;;;;;6276083;22;20217;-56
2023/04/14 11:52:46;;;;;;;6.37;3.97;;;;;;;;;;6276222;22;20279;-56
2023/04/14 11:55:14;;;;;;;6.50;4.53;;;;;;;;;;6274154;22;20217;-56
2023/04/14 11:57:44;;;;;;;8.70;5.10;;;;;;;;;;6269831;22;20572;-57
2023/04/14 12:00:12;;;;;;;3.97;3.40;;;;;;;;;;6269959;22;20225;-57
2023/04/14 12:02:38;;;;;;;4.83;3.63;;;;;;;;;;6270000;22;20271;-56
2023/04/14 12:05:06;;;;;;;4.77;3.97;;;;;;;;;;6270438;22;20248;-57
2023/04/14 12:07:33;;;;;;;6.27;5.43;;;;;;;;;;6275847;22;20217;-57
2023/04/14 12:09:59;;;;;;;5.93;4.50;;;;;;;;;;6275265;22;20225;-57
2023/04/14 12:12:27;;;;;;;4.20;3.77;;;;;;;;;;6276173;22;20221;-56
2023/04/14 12:14:54;;;;;;;5.77;4.90;;;;;;;;;;6275839;22;20224;-56
2023/04/14 12:17:21;;;;;;;5.13;4.00;;;;;;;;;;6247469;22;20256;-57
2023/04/14 12:19:47;;;;;;;8.80;4.63;;;;;;;;;;6269941;22;20227;-56
2023/04/14 12:22:15;;;;;;;5.83;4.40;;;;;;;;;;6269797;22;20221;-56
2023/04/14 12:24:42;;;;;;;9.93;5.23;;;;;;;;;;6269673;22;20255;-56
2023/04/14 12:27:09;;;;;;;5.17;4.37;;;;;;;;;;6269147;22;20221;-56
2023/04/14 12:29:38;;;;;;;7.63;5.00;;;;;;;;;;6275479;22;20237;-57
2023/04/14 12:32:11;;;;;;;7.17;5.37;;;;;;;;;;6275827;22;20544;-56
2023/04/14 12:34:38;;;;;;;5.67;5.07;;;;;;;;;;6275593;22;20225;-56
2023/04/14 12:37:08;;;;;;;7.47;5.73;;;;;;;;;;6275728;22;20746;-56
2023/04/14 12:39:51;;;;;;;5.33;4.43;;;;;;;;;;6274434;22;20225;-56
2023/04/14 12:42:18;;;;;;;8.10;5.57;;;;;;;;;;6269561;22;20225;-56
2023/04/14 12:45:01;;;;;;;9.50;5.53;;;;;;;;;;6269752;22;20249;-56
2023/04/14 12:47:29;;;;;;;4.70;4.10;;;;;;;;;;6269591;22;20224;-56
2023/04/14 12:49:57;;;;;;;5.27;4.60;;;;;;;;;;6271152;22;20540;-56
2023/04/14 12:52:33;;;;;;;8.33;5.50;;;;;;;;;;6275863;22;20304;-56
2023/04/14 12:55:01;;;;;;;5.90;4.30;;;;;;;;;;6275729;22;20698;-56
2023/04/14 12:57:28;;;;;;;5.60;4.73;;;;;;;;;;6275597;22;20252;-56
2023/04/14 12:59:55;;;;;;;7.47;5.27;;;;;;;;;;6275794;22;20225;-56
2023/04/14 13:02:21;;;;;;;6.67;4.60;;;;;;;;;;6272593;22;20248;-57
2023/04/14 13:04:49;;;;;;;9.30;5.60;;;;;;;;;;6269527;22;20220;-56
2023/04/14 13:07:15;;;;;;;10.07;7.07;;;;;;;;;;6269245;22;20235;-56
2023/04/14 13:09:42;;;;;;;9.23;8.33;;;;;;;;;;6269506;22;20275;-58
2023/04/14 13:12:09;;;;;;;13.43;11.07;;;;;;;;;;6271187;22;20083;-56
2023/04/14 13:14:36;;;;;;;13.00;9.53;;;;;;;;;;6275477;22;20004;-57
2023/04/14 13:17:03;;;;;;;9.43;8.53;;;;;;;;;;6275363;22;20011;-57
2023/04/14 13:19:29;;;;;;;12.53;9.37;;;;;;;;;;6276770;22;20057;-57
2023/04/14 13:21:56;;;;;;;10.77;8.70;;;;;;;;;;6277804;22;20073;-57
2023/04/14 13:24:22;;;;;;;8.93;8.03;;;;;;;;;;6275240;22;20011;-57
2023/04/14 13:26:50;;;;;;;13.33;7.63;;;;;;;;;;6271387;22;20083;-57
2023/04/14 13:29:17;;;;;;;10.50;6.43;;;;;;;;;;6271439;22;20003;-57
2023/04/14 13:31:44;;;;;;;6.17;5.50;;;;;;;;;;6271227;22;20008;-57
2023/04/14 13:34:10;;;;;;;7.77;5.23;;;;;;;;;;6272574;22;20443;-57
2023/04/14 13:36:37;;;;;;;18.80;6.10;;;;;;;;;;6277538;22;20409;-57
2023/04/14 13:39:05;;;;;;;5.67;5.07;;;;;;;;;;6277321;22;20498;-57
2023/04/14 13:41:31;;;;;;;7.30;4.07;;;;;;;;;;6277227;22;19999;-57
2023/04/14 13:43:58;;;;;;;5.70;4.37;;;;;;;;;;6277367;22;20004;-57
2023/04/14 13:46:25;;;;;;;9.17;5.87;;;;;;;;;;6275640;22;20377;-57
2023/04/14 13:48:52;;;;;;;5.67;4.57;;;;;;;;;;6271087;22;19999;-57
2023/04/14 13:51:19;;;;;;;8.57;5.67;;;;;;;;;;6270601;22;20008;-58
2023/04/14 13:53:46;;;;;;;5.63;4.43;;;;;;;;;;6243953;22;20004;-57
2023/04/14 13:56:13;;;;;;;8.97;5.07;;;;;;;;;;6271774;22;20016;-57
2023/04/14 13:58:40;;;;;;;7.73;3.83;;;;;;;;;;6277036;22;20004;-57
2023/04/14 14:01:10;;;;;;;11.27;5.37;;;;;;;;;;6277149;22;20015;-58
2023/04/14 14:03:43;;;;;;;6.87;5.63;;;;;;;;;;6277157;22;20010;-58
2023/04/14 14:06:10;;;;;;;5.87;4.93;;;;;;;;;;6249820;22;20386;-58
2023/04/14 14:08:37;;;;;;;8.23;5.13;;;;;;;;;;6275584;22;20027;-58
2023/04/14 14:11:05;;;;;;;10.23;4.87;;;;;;;;;;6270933;22;20057;-58
2023/04/14 14:13:37;;;;;;;8.93;4.90;;;;;;;;;;6270950;22;20337;-58
2023/04/14 14:16:07;;;;;;;4.33;3.60;;;;;;;;;;6270673;22;20004;-58
2023/04/14 14:18:36;;;;;;;10.90;4.77;;;;;;;;;;6271890;22;20000;-58
2023/04/14 14:21:03;;;;;;;6.33;4.17;;;;;;;;;;6277060;22;20007;-58
2023/04/14 14:23:30;;;;;;;6.87;4.63;;;;;;;;;;6276892;22;20474;-58
2023/04/14 14:25:56;;;;;;;9.03;5.70;;;;;;;;;;6276942;22;20003;-58
2023/04/14 14:28:23;;;;;;;6.97;4.57;;;;;;;;;;6276659;22;20007;-58
2023/04/14 14:30:50;;;;;;;10.57;4.73;;;;;;;;;;6274940;22;20331;-58
2023/04/14 14:33:16;;;;;;;6.33;4.37;;;;;;;;;;6270366;22;20015;-58
2023/04/14 14:35:43;;;;;;;7.93;5.57;;;;;;;;;;6269801;22;20019;-58
2023/04/14 14:38:10;;;;;;;6.10;4.70;;;;;;;;;;6270897;22;20008;-59
2023/04/14 14:40:37;;;;;;;7.23;3.90;;;;;;;;;;6271334;22;20134;-58
2023/04/14 14:43:04;;;;;;;3.73;2.70;;;;;;;;;;6276782;22;20004;-58
2023/04/14 14:45:30;;;;;;;5.97;3.47;;;;;;;;;;6276754;22;20004;-58
2023/04/14 14:47:57;;;;;;;5.13;3.17;;;;;;;;;;6276546;22;20035;-58
2023/04/14 14:50:24;;;;;;;5.67;3.70;;;;;;;;;;6276550;22;20007;-58
2023/04/14 14:52:51;;;;;;;5.17;2.83;;;;;;;;;;6247879;22;20053;-58
2023/04/14 14:55:17;;;;;;;3.30;2.60;;;;;;;;;;6270477;22;20004;-59
2023/04/14 14:57:44;;;;;;;3.73;2.70;;;;;;;;;;6270464;22;20011;-58
2023/04/14 15:00:11;;;;;;;4.13;2.87;;;;;;;;;;6243105;22;20430;-59
2023/04/14 15:02:38;;;;;;;3.43;2.67;;;;;;;;;;6270745;22;20038;-58
2023/04/14 15:05:06;;;;;;;4.90;2.73;;;;;;;;;;6276543;22;20004;-59
2023/04/14 15:07:32;;;;;;;3.43;2.63;;;;;;;;;;6276149;22;20004;-59
2023/04/14 15:10:00;;;;;;;6.10;3.47;;;;;;;;;;6276052;22;20027;-59
2023/04/14 15:12:27;;;;;;;4.37;3.20;;;;;;;;;;6276525;22;20105;-58
2023/04/14 15:14:53;;;;;;;4.93;3.43;;;;;;;;;;6275525;22;20004;-59
2023/04/14 15:17:20;;;;;;;5.20;3.10;;;;;;;;;;6270525;22;20015;-59
2023/04/14 15:19:47;;;;;;;4.03;2.80;;;;;;;;;;6270063;22;20027;-58
2023/04/14 15:22:15;;;;;;;7.20;4.03;;;;;;;;;;6270414;22;20030;-59
2023/04/14 15:24:41;;;;;;;6.70;3.40;;;;;;;;;;6269662;22;20007;-58
2023/04/14 15:27:08;;;;;;;7.00;3.33;;;;;;;;;;6276344;22;20449;-59
2023/04/14 15:29:35;;;;;;;4.90;3.83;;;;;;;;;;6276285;22;20500;-59
2023/04/14 15:32:01;;;;;;;6.47;4.17;;;;;;;;;;6276219;22;20457;-59
2023/04/14 15:34:28;;;;;;;6.07;3.97;;;;;;;;;;6276061;22;20335;-59
2023/04/14 15:36:55;;;;;;;5.32;3.83;;;;;;;;;;6275804;22;20383;-59
2023/04/14 15:39:21;;;;;;;4.82;3.28;;;;;;;;;;6270155;22;20427;-59
2023/04/14 15:41:49;;;;;;;4.47;3.05;;;;;;;;;;6269093;22;20010;-59
2023/04/14 15:44:16;;;;;;;8.05;4.20;;;;;;;;;;6270049;22;20441;-59
2023/04/14 15:46:43;;;;;;;6.15;3.85;;;;;;;;;;6269996;22;20054;-59
2023/04/14 15:49:09;;;;;;;5.47;2.85;;;;;;;;;;6275675;22;20054;-59
2023/04/14 15:51:36;;;;;;;6.68;3.40;;;;;;;;;;6276167;22;20007;-59
2023/04/14 15:54:03;;;;;;;3.92;2.88;;;;;;;;;;6276056;22;20050;-60
2023/04/14 15:56:29;;;;;;;6.07;3.50;;;;;;;;;;6276021;22;20065;-60
2023/04/14 15:58:56;;;;;;;4.50;2.97;;;;;;;;;;6275193;22;20011;-60
2023/04/14 16:01:23;;;;;;;6.18;3.08;;;;;;;;;;6269698;22;20335;-61
2023/04/14 16:03:50;;;;;;;3.90;3.13;;;;;;;;;;6269680;22;20008;-60
2023/04/14 16:06:16;;;;;;;5.60;3.25;;;;;;;;;;6269789;22;19996;-61
2023/04/14 16:08:44;;;;;;;5.10;2.83;;;;;;;;;;6269792;22;20008;-60
2023/04/14 16:11:16;;;;;;;3.55;2.28;;;;;;;;;;6274909;22;20008;-60
2023/04/14 16:13:44;;;;;;;4.18;2.88;;;;;;;;;;6275205;22;20003;-61
2023/04/14 16:16:14;;;;;;;20.67;3.45;;;;;;;;;;6275366;22;20023;-60
2023/04/14 16:18:41;;;;;;;5.15;3.22;;;;;;;;;;6275697;22;20073;-60
2023/04/14 16:21:08;;;;;;;5.60;2.78;;;;;;;;;;6275703;22;20438;-61
2023/04/14 16:23:35;;;;;;;5.07;3.30;;;;;;;;;;6269518;22;20083;-61
2023/04/14 16:26:01;;;;;;;3.92;2.72;;;;;;;;;;6269682;22;20004;-61
2023/04/14 16:28:28;;;;;;;3.60;2.67;;;;;;;;;;6269405;22;20049;-61
2023/04/14 16:30:58;;;;;;;2.97;2.00;;;;;;;;;;6269470;22;20065;-61
2023/04/14 16:33:25;;;;;;;4.05;2.83;;;;;;;;;;6274704;22;20457;-61
2023/04/14 16:35:52;;;;;;;5.63;3.20;;;;;;;;;;6275530;22;20463;-61
2023/04/14 16:38:18;;;;;;;3.20;2.00;;;;;;;;;;6275527;22;20304;-61
